Time;durP1;ratioP1;P1;durP2;ratioP2;P2;SDS_P1;SDS_P2;PMS_P1;PMS_P2;Temp;Humidity;BMP_temperature;BMP_pressure;BME280_temperature;BME280_humidity;BME280_pressure;Samples;Min_cycle;Max_cycle;Signal;HPM_P1;HPM_P2
2021/08/16 00:03:29;;;;;;;9.00;2.70;;;;;;;14.04;94.42;100143.03;5870455;24;21026;31
2021/08/16 00:52:12;;;;;;;7.32;2.83;;;;;;;13.82;95.74;100112.25;5622920;23;20017;31
2021/08/16 00:54:39;;;;;;;6.68;2.50;;;;;;;13.38;96.13;100041.53;4839777;29;20038;-89
2021/08/16 00:57:06;;;;;;;5.80;2.53;;;;;;;13.24;96.28;100015.75;4825471;29;20074;-89
2021/08/16 00:59:32;;;;;;;5.38;2.67;;;;;;;13.29;96.06;100015.94;4826086;29;20055;-89
2021/08/16 01:01:58;;;;;;;9.30;2.70;;;;;;;13.32;96.21;100021.69;4826025;29;20027;-89
2021/08/16 01:04:25;;;;;;;5.93;2.60;;;;;;;13.30;96.14;100014.84;4824979;29;20103;-89
2021/08/16 01:06:51;;;;;;;5.07;2.40;;;;;;;13.79;96.48;100105.41;4825644;29;20054;-89
2021/08/16 01:09:17;;;;;;;7.53;2.60;;;;;;;13.33;96.30;100025.19;4840884;29;20035;-89
2021/08/16 01:11:43;;;;;;;6.82;2.45;;;;;;;13.39;96.51;100044.00;4841855;29;20015;-89
2021/08/16 01:14:09;;;;;;;8.98;2.58;;;;;;;13.37;96.33;100035.28;4826629;29;20033;-89
2021/08/16 01:16:35;;;;;;;6.00;2.50;;;;;;;13.28;96.51;100030.50;4828082;29;20042;-89
2021/08/16 01:19:00;;;;;;;7.55;3.05;;;;;;;13.12;96.35;100005.81;4828224;29;20019;-89
2021/08/16 01:21:26;;;;;;;5.90;2.72;;;;;;;13.22;96.27;100020.59;4828907;29;20042;-89
2021/08/16 01:23:52;;;;;;;7.57;3.20;;;;;;;13.25;96.88;100026.38;5550372;24;21042;-78
2021/08/16 01:26:18;;;;;;;7.00;3.00;;;;;;;13.13;96.85;100007.44;4848344;29;20033;-76
2021/08/16 01:28:43;;;;;;;9.23;2.85;;;;;;;13.27;96.35;100031.53;4863071;29;20126;-89
2021/08/16 01:31:09;;;;;;;5.53;2.90;;;;;;;13.08;97.06;99999.22;4847985;29;20030;-90
2021/08/16 01:33:38;;;;;;;6.40;2.65;;;;;;;13.07;97.03;99997.56;4847613;29;20038;-90
2021/08/16 01:36:04;;;;;;;8.18;2.88;;;;;;;13.32;97.52;100035.19;4850720;29;20018;-90
2021/08/16 01:38:35;;;;;;;5.80;2.70;;;;;;;13.10;97.09;99996.28;4865282;29;20041;-90
2021/08/16 01:41:01;;;;;;;5.28;2.92;;;;;;;13.11;96.73;99987.13;4865381;29;20029;-90
2021/08/16 01:43:26;;;;;;;8.30;3.15;;;;;;;13.07;97.05;99977.84;4864819;29;20147;-90
2021/08/16 01:45:53;;;;;;;8.07;2.90;;;;;;;13.08;97.34;99991.13;4883369;29;20018;-90
2021/08/16 01:48:19;;;;;;;5.82;2.90;;;;;;;13.62;97.62;100081.00;4868057;29;20030;-90
2021/08/16 01:50:46;;;;;;;6.05;3.20;;;;;;;13.19;97.67;100011.09;4868419;29;20093;-90
2021/08/16 01:53:12;;;;;;;6.65;3.00;;;;;;;13.28;97.48;100019.69;4868448;29;20058;-88
2021/08/16 01:55:38;;;;;;;6.72;3.00;;;;;;;13.07;97.49;99991.34;4867973;29;20018;-90
2021/08/16 01:58:04;;;;;;;6.03;3.00;;;;;;;13.00;97.77;99979.84;4868227;29;20026;-90
2021/08/16 02:00:30;;;;;;;7.53;3.25;;;;;;;13.06;97.57;99989.72;4868713;29;20069;-90
2021/08/16 02:02:56;;;;;;;8.15;2.97;;;;;;;12.99;97.41;99981.72;4868509;29;20034;-90
2021/08/16 02:48:54;;;;;;;10.55;4.10;;;;;;;13.38;98.62;100028.84;5902114;23;20025;31
2021/08/16 03:26:30;;;;;;;7.43;4.45;;;;;;;12.88;99.51;99942.88;5556482;23;20079;31
2021/08/16 03:57:17;;;;;;;8.70;5.30;;;;;;;12.99;100.00;99926.91;4844588;29;20046;-90
2021/08/16 03:59:43;;;;;;;12.05;6.20;;;;;;;12.99;100.00;99918.81;4844915;29;20062;-90
2021/08/16 04:02:11;;;;;;;9.48;5.70;;;;;;;12.91;100.00;99909.16;4846006;29;20048;-89
2021/08/16 04:04:37;;;;;;;11.55;6.03;;;;;;;13.29;100.00;99968.13;4843543;29;20014;-90
2021/08/16 04:07:02;;;;;;;12.48;5.65;;;;;;;12.72;100.00;99881.50;4843425;29;20034;-89
2021/08/16 04:09:28;;;;;;;11.38;5.60;;;;;;;12.79;100.00;99894.88;4843536;29;20035;-89
2021/08/16 04:11:54;;;;;;;9.30;5.45;;;;;;;12.86;100.00;99898.25;4843546;29;20022;-89
2021/08/16 04:14:19;;;;;;;10.65;5.45;;;;;;;12.91;100.00;99911.88;4844943;29;20034;-89
2021/08/16 04:16:45;;;;;;;10.93;5.63;;;;;;;12.80;100.00;99888.41;4844006;29;20014;-89
2021/08/16 04:19:10;;;;;;;11.50;5.38;;;;;;;12.94;100.00;99912.22;4845050;29;20018;-89
2021/08/16 04:21:36;;;;;;;9.32;5.15;;;;;;;12.75;100.00;99875.63;4843176;29;20014;-88
2021/08/16 04:24:02;;;;;;;9.27;5.20;;;;;;;12.98;100.00;99909.03;4842131;29;20086;-87
2021/08/16 04:26:28;;;;;;;10.18;5.13;;;;;;;13.02;100.00;99912.94;4842459;29;20071;-87
2021/08/16 04:28:53;;;;;;;11.88;5.93;;;;;;;13.21;100.00;99936.03;4852604;29;20045;-87
2021/08/16 04:31:19;;;;;;;8.52;5.18;;;;;;;12.86;100.00;99876.66;4860889;29;20161;-88
2021/08/16 04:33:45;;;;;;;11.10;5.95;;;;;;;12.94;100.00;99895.19;4850777;29;20047;-88
2021/08/16 04:36:22;;;;;;;11.38;5.95;;;;;;;13.10;100.00;99924.19;4842389;29;20045;-87
2021/08/16 04:38:48;;;;;;;12.73;6.13;;;;;;;12.87;100.00;99886.41;4846114;29;20031;-88
2021/08/16 04:41:13;;;;;;;12.77;6.03;;;;;;;13.05;100.00;99918.69;4833001;29;20045;-88
2021/08/16 04:43:39;;;;;;;10.60;5.95;;;;;;;13.35;100.00;99960.94;4856162;29;20018;-88
2021/08/16 04:46:05;;;;;;;12.65;5.72;;;;;;;13.05;100.00;99917.88;4845599;29;20030;-88
2021/08/16 04:48:31;;;;;;;10.25;5.78;;;;;;;12.97;100.00;99910.09;4839036;29;20049;-87
2021/08/16 04:50:57;;;;;;;11.63;5.85;;;;;;;13.01;100.00;99905.88;4843323;29;20042;-87
2021/08/16 04:53:23;;;;;;;8.13;5.22;;;;;;;13.11;100.00;99925.00;4839938;29;20067;-88
2021/08/16 04:55:49;;;;;;;12.23;5.45;;;;;;;12.90;100.00;99883.22;4843499;29;20083;-88
2021/08/16 04:58:15;;;;;;;11.68;5.50;;;;;;;13.03;100.00;99904.59;4843627;29;20037;-88
2021/08/16 05:00:43;;;;;;;11.40;5.53;;;;;;;13.20;100.00;99934.38;4844148;29;20022;-88
2021/08/16 05:03:09;;;;;;;10.85;5.68;;;;;;;13.22;100.00;99928.75;4833829;29;20088;-88
2021/08/16 05:05:34;;;;;;;15.82;5.50;;;;;;;13.00;100.00;99893.44;4854240;29;20018;-88
2021/08/16 05:08:01;;;;;;;11.27;5.03;;;;;;;12.86;100.00;99876.66;4850822;29;20046;-88
2021/08/16 05:10:28;;;;;;;8.85;5.00;;;;;;;12.85;100.00;99875.03;4857546;29;20030;-88
2021/08/16 05:12:57;;;;;;;9.38;5.47;;;;;;;12.90;100.00;99885.94;4846800;29;20026;-89
2021/08/16 05:15:23;;;;;;;8.75;5.32;;;;;;;13.42;100.00;99956.22;4845023;29;20034;-89
2021/08/16 05:17:49;;;;;;;9.65;5.70;;;;;;;13.43;100.00;99960.56;4845007;29;20058;-89
2021/08/16 05:20:16;;;;;;;10.60;5.30;;;;;;;12.98;100.00;99893.69;4848113;29;20030;-89
2021/08/16 05:22:44;;;;;;;12.68;5.40;;;;;;;13.05;100.00;99904.34;4852373;29;20072;-89
2021/08/16 05:25:11;;;;;;;9.73;5.13;;;;;;;12.93;100.00;99880.06;4842559;29;20031;-88
2021/08/16 05:27:37;;;;;;;12.13;5.25;;;;;;;13.00;100.00;99888.03;4832139;29;20011;-89
2021/08/16 05:30:04;;;;;;;9.82;5.00;;;;;;;13.05;100.00;99894.38;4846984;29;20063;-89
2021/08/16 05:32:30;;;;;;;11.52;5.93;;;;;;;13.19;100.00;99907.63;4847316;29;20113;-90
2021/08/16 05:34:56;;;;;;;12.20;5.75;;;;;;;13.22;100.00;99918.75;4847258;29;20026;-90
2021/08/16 05:37:22;;;;;;;12.02;6.28;;;;;;;13.04;100.00;99890.00;4843278;29;20034;-90
2021/08/16 05:39:48;;;;;;;8.65;5.90;;;;;;;13.11;100.00;99901.53;4860538;29;20033;-90
2021/08/16 05:42:15;;;;;;;11.98;5.82;;;;;;;13.22;100.00;99921.47;4865389;29;20037;-89
2021/08/16 05:44:41;;;;;;;11.55;5.88;;;;;;;13.55;100.00;99960.53;4847333;29;20010;-89
2021/08/16 05:47:07;;;;;;;13.05;5.85;;;;;;;13.25;100.00;99914.81;4833844;29;20018;-89
2021/08/16 05:49:33;;;;;;;14.73;5.30;;;;;;;13.58;100.00;99965.47;4847711;29;20034;-89
2021/08/16 05:51:59;;;;;;;13.60;5.15;;;;;;;13.26;100.00;99909.16;4847408;29;20032;-89
2021/08/16 05:54:24;;;;;;;11.43;4.93;;;;;;;13.15;100.00;99886.47;4841941;29;20400;-88
2021/08/16 05:56:50;;;;;;;12.90;4.45;;;;;;;13.38;100.00;99919.94;4836068;29;20042;-90
2021/08/16 05:59:16;;;;;;;10.98;4.53;;;;;;;13.21;100.00;99891.97;4833731;29;20027;-89
2021/08/16 06:01:42;;;;;;;8.75;4.28;;;;;;;13.26;100.00;99900.22;4848845;29;20033;-89
2021/08/16 06:04:08;;;;;;;10.02;4.38;;;;;;;13.22;100.00;99885.53;4848137;29;20026;-88
2021/08/16 06:06:34;;;;;;;8.65;4.30;;;;;;;13.35;100.00;99904.19;4842075;29;20026;-90
2021/08/16 06:09:00;;;;;;;9.00;3.97;;;;;;;13.31;100.00;99894.91;4843075;29;20041;-90
2021/08/16 06:11:26;;;;;;;6.15;3.92;;;;;;;13.48;100.00;99913.91;4834318;29;20042;-90
2021/08/16 06:13:51;;;;;;;10.63;4.40;;;;;;;13.58;100.00;99931.16;4858293;29;20028;-90
2021/08/16 06:16:17;;;;;;;7.43;3.92;;;;;;;13.61;100.00;99919.88;4867149;29;20061;-91
2021/08/16 06:18:44;;;;;;;8.25;3.70;;;;;;;13.75;100.00;99933.09;4865590;29;20038;-88
2021/08/16 06:21:10;;;;;;;8.30;4.15;;;;;;;13.51;100.00;99916.97;4841258;29;20020;-91
2021/08/16 06:23:36;;;;;;;8.70;4.35;;;;;;;13.47;100.00;99920.38;4848690;29;20033;-90
2021/08/16 07:02:15;;;;;;;6.88;4.50;;;;;;;13.89;98.94;99937.13;5472517;23;20045;-91
2021/08/16 07:04:40;;;;;;;9.80;4.63;;;;;;;13.98;98.55;99937.59;4847550;29;20070;-90
2021/08/16 07:07:06;;;;;;;8.73;5.00;;;;;;;13.98;98.50;99945.69;4847549;29;20031;-90
2021/08/16 07:22:27;;;;;;;10.82;4.00;;;;;;;13.69;99.39;99947.56;5525193;23;20046;-92
2021/08/16 07:24:53;;;;;;;7.22;3.70;;;;;;;13.99;99.34;99991.41;4848586;29;20090;-91
2021/08/16 07:27:18;;;;;;;9.13;3.35;;;;;;;13.67;99.16;99957.78;4849141;29;20034;-92
2021/08/16 07:40:06;;;;;;;5.30;3.50;;;;;;;13.59;99.70;99949.00;4853247;24;20038;-90
2021/08/16 07:42:32;;;;;;;7.45;4.03;;;;;;;13.58;99.84;99938.44;4846917;29;20499;-90
2021/08/16 07:44:57;;;;;;;7.38;3.90;;;;;;;13.52;99.83;99923.19;4847552;29;20030;-91
2021/08/16 07:47:23;;;;;;;7.00;3.90;;;;;;;13.50;99.65;99898.25;4847676;29;20062;-91
2021/08/16 07:49:48;;;;;;;6.70;3.45;;;;;;;13.66;99.65;99916.44;4847669;29;20030;-92
2021/08/16 07:52:14;;;;;;;5.95;3.03;;;;;;;13.72;99.67;99925.47;4848023;29;20017;-92
2021/08/16 07:54:39;;;;;;;5.80;2.85;;;;;;;13.66;99.67;99915.59;4847427;29;20067;-92
2021/08/16 07:57:05;;;;;;;7.82;2.75;;;;;;;13.80;99.27;99942.09;4847481;29;20026;-91
2021/08/16 07:59:31;;;;;;;5.05;2.60;;;;;;;13.83;99.52;99946.22;4846865;29;20132;-91
2021/08/16 08:01:56;;;;;;;8.85;3.28;;;;;;;13.84;99.26;99915.41;4846164;29;20014;-91
2021/08/16 08:06:57;;;;;;;5.32;2.72;;;;;;;14.25;98.88;99941.31;5475610;24;20079;-90
2021/08/16 08:09:22;;;;;;;5.75;3.05;;;;;;;14.16;98.46;99918.41;5054083;23;20114;-90
2021/08/16 08:11:48;;;;;;;5.32;2.83;;;;;;;14.23;98.41;99920.97;4846927;29;20081;-91
2021/08/16 08:14:14;;;;;;;5.35;2.80;;;;;;;14.38;98.36;99940.16;4861948;29;20068;-91
2021/08/16 08:42:31;;;;;;;3.63;1.73;;;;;;;14.88;94.13;99946.66;5031358;24;20042;-90
2021/08/16 08:44:57;;;;;;;5.35;2.38;;;;;;;14.90;94.01;99939.09;4848175;29;20023;-90
2021/08/16 08:47:23;;;;;;;5.28;1.90;;;;;;;15.01;93.80;99947.13;4848181;29;20070;-86
2021/08/16 08:49:49;;;;;;;5.70;2.33;;;;;;;14.81;94.40;99914.34;4847447;29;20022;-88
2021/08/16 08:52:14;;;;;;;6.00;2.35;;;;;;;14.79;93.43;99911.88;4847859;29;20045;-90
2021/08/16 08:54:41;;;;;;;5.13;2.10;;;;;;;14.91;93.75;99935.34;4851090;29;20031;-88
2021/08/16 08:57:08;;;;;;;4.00;1.70;;;;;;;14.70;93.53;99917.94;4850998;29;20014;-89
2021/08/16 08:59:33;;;;;;;3.50;1.70;;;;;;;14.72;92.87;99910.41;4851801;29;20019;-90
2021/08/16 09:07:09;;;;;;;5.07;2.13;;;;;;;15.11;92.82;99967.31;5337600;23;20034;-86
2021/08/16 09:09:35;;;;;;;3.60;2.10;;;;;;;14.74;92.51;99913.69;4856049;29;20057;-90
2021/08/16 09:12:01;;;;;;;4.35;2.05;;;;;;;15.25;91.91;99993.81;4832660;29;20022;-90
2021/08/16 09:14:27;;;;;;;4.45;2.10;;;;;;;14.89;91.91;99937.47;4831196;29;20036;-89
2021/08/16 09:16:52;;;;;;;4.22;1.90;;;;;;;15.32;91.98;99992.81;4831563;29;20007;-89
2021/08/16 09:19:19;;;;;;;4.03;1.75;;;;;;;15.51;92.21;100005.00;4834741;29;20018;-89
2021/08/16 09:21:57;;;;;;;3.90;1.70;;;;;;;15.03;91.75;99922.47;4846848;29;20021;-90
2021/08/16 09:24:30;;;;;;;4.75;1.88;;;;;;;15.04;90.86;99913.31;4846832;29;20031;-89
2021/08/16 09:27:10;;;;;;;4.15;1.77;;;;;;;15.01;90.87;99909.19;4831865;29;20026;-89
2021/08/16 09:29:47;;;;;;;3.00;1.70;;;;;;;15.67;90.07;99997.91;4845280;29;20052;-89
2021/08/16 09:32:16;;;;;;;3.42;1.60;;;;;;;15.28;90.02;99922.00;4831157;29;20031;-89
2021/08/16 09:34:49;;;;;;;5.13;1.80;;;;;;;15.45;90.31;99917.34;4834712;29;20038;-90
2021/08/16 09:37:16;;;;;;;2.40;1.70;;;;;;;15.72;89.49;99913.88;4846446;29;20031;-90
2021/08/16 09:39:43;;;;;;;3.95;1.67;;;;;;;16.05;88.89;99941.91;4832661;29;20074;-89
2021/08/16 09:42:10;;;;;;;3.38;1.45;;;;;;;16.66;88.27;100007.63;4850303;29;20019;-88
2021/08/16 09:54:46;;;;;;;2.78;1.30;;;;;;;16.67;85.55;99971.22;4972691;24;20038;-86
2021/08/16 09:57:12;;;;;;;2.50;1.00;;;;;;;16.37;84.84;99948.19;4863337;29;20045;-85
2021/08/16 09:59:38;;;;;;;3.92;1.30;;;;;;;16.64;85.30;99944.59;4902201;24;20039;-87
2021/08/16 10:35:49;;;;;;;1.80;1.38;;;;;;;17.55;81.02;99906.25;4858166;24;20087;-85
2021/08/16 10:38:17;;;;;;;2.30;1.50;;;;;;;17.79;81.70;99952.06;5054471;23;20066;-87
2021/08/16 11:08:26;;;;;;;2.72;1.00;;;;;;;17.33;80.78;100015.19;5396543;24;20087;-86
2021/08/16 11:10:52;;;;;;;2.67;1.15;;;;;;;16.67;80.72;99930.50;4846930;29;20069;-86
2021/08/16 11:23:40;;;;;;;2.38;1.10;;;;;;;16.11;81.33;99903.69;5210228;23;20050;-86
2021/08/16 11:26:09;;;;;;;3.67;1.38;;;;;;;16.10;81.70;99915.63;4850971;29;20082;-86
2021/08/16 11:28:35;;;;;;;1.90;1.20;;;;;;;16.10;81.77;99936.53;4846233;29;20041;-86
2021/08/16 11:33:41;;;;;;;2.78;1.30;;;;;;;15.67;83.51;99911.13;4876468;23;20043;-87
2021/08/16 11:36:14;;;;;;;2.38;1.40;;;;;;;15.44;83.48;99888.59;4850986;29;20035;-88
2021/08/16 11:38:42;;;;;;;2.85;1.38;;;;;;;15.35;84.55;99892.81;5200463;23;20062;-86
2021/08/16 11:41:10;;;;;;;2.67;1.63;;;;;;;15.27;85.25;99879.72;4846200;29;20037;-86
2021/08/16 11:43:37;;;;;;;4.38;1.70;;;;;;;15.60;85.69;99933.00;4847768;29;20045;-87
2021/08/16 11:46:14;;;;;;;4.35;1.58;;;;;;;15.60;85.79;99937.59;5373546;23;20052;-82
2021/08/16 11:51:21;;;;;;;5.07;1.40;;;;;;;15.57;86.41;99921.84;5486339;24;20065;-84
2021/08/16 11:53:48;;;;;;;3.55;1.13;;;;;;;15.55;86.16;99918.53;4839135;29;20038;-85
2021/08/16 11:56:15;;;;;;;2.72;1.20;;;;;;;15.76;86.32;99953.00;4837229;29;20042;-85
2021/08/16 11:58:43;;;;;;;1.73;1.25;;;;;;;15.66;85.90;99934.72;4844733;29;20010;-87
2021/08/16 12:01:10;;;;;;;2.40;1.02;;;;;;;15.66;85.48;99932.00;4834333;29;20031;-87
2021/08/16 12:03:37;;;;;;;3.13;1.35;;;;;;;15.67;86.09;99928.22;4846772;29;20034;-86
2021/08/16 12:06:05;;;;;;;2.53;1.00;;;;;;;15.50;85.91;99895.72;4841779;29;20029;-87
2021/08/16 12:08:32;;;;;;;4.30;1.15;;;;;;;15.51;85.62;99896.53;4847357;29;20014;-86
2021/08/16 12:10:59;;;;;;;3.00;1.13;;;;;;;16.05;85.16;99923.72;4843734;29;20042;-84
2021/08/16 12:13:26;;;;;;;3.10;1.05;;;;;;;16.64;83.87;99953.53;4839684;29;20045;-83
2021/08/16 12:15:52;;;;;;;2.05;1.17;;;;;;;16.77;81.67;99941.44;4841151;29;20030;-84
2021/08/16 12:18:32;;;;;;;2.22;1.00;;;;;;;16.53;80.35;99896.72;4837739;29;20018;-85
2021/08/16 12:20:59;;;;;;;2.28;0.80;;;;;;;16.32;78.89;99885.66;4837042;29;20051;-86
2021/08/16 12:23:45;;;;;;;3.55;1.27;;;;;;;16.43;78.37;99887.41;4849488;29;20044;-85
2021/08/16 12:26:11;;;;;;;1.80;0.82;;;;;;;17.24;78.45;99994.22;4843237;29;20075;-85
2021/08/16 12:28:44;;;;;;;1.42;0.77;;;;;;;17.07;77.17;99968.00;4849420;29;20054;-86
2021/08/16 12:31:18;;;;;;;3.38;0.88;;;;;;;16.66;78.29;99913.38;4847625;29;20026;-86
2021/08/16 12:33:52;;;;;;;1.92;0.80;;;;;;;17.00;76.95;99928.56;4844722;29;20022;-85
2021/08/16 12:36:25;;;;;;;2.40;1.00;;;;;;;17.02;77.62;99910.06;4844853;29;20030;-86
2021/08/16 12:38:57;;;;;;;1.73;0.88;;;;;;;16.99;76.99;99916.88;4864236;29;20029;-87
2021/08/16 12:41:24;;;;;;;1.90;1.00;;;;;;;17.45;76.95;99978.81;4840955;29;20022;-85
2021/08/16 12:43:50;;;;;;;1.95;0.90;;;;;;;16.82;75.70;99876.28;4847173;29;20055;-86
2021/08/16 12:46:32;;;;;;;1.73;0.80;;;;;;;16.81;75.84;99880.06;4843919;29;20071;-83
2021/08/16 12:48:58;;;;;;;2.90;1.00;;;;;;;17.07;76.57;99910.94;4841968;29;20036;-83
2021/08/16 12:51:25;;;;;;;1.52;0.95;;;;;;;17.23;76.31;99949.88;4842455;29;20449;-84
2021/08/16 12:53:55;;;;;;;3.38;1.00;;;;;;;16.82;76.74;99887.16;4836292;29;20021;-85
2021/08/16 12:56:21;;;;;;;3.33;0.90;;;;;;;17.12;76.32;99923.75;4841333;29;20046;-85
2021/08/16 12:58:46;;;;;;;1.23;0.90;;;;;;;17.77;76.04;99982.25;4844725;29;20021;-86
2021/08/16 13:01:25;;;;;;;0.82;0.80;;;;;;;18.06;75.35;99987.25;4846532;29;20030;-85
2021/08/16 13:03:52;;;;;;;2.00;1.00;;;;;;;18.24;74.05;99989.44;4846250;29;20040;-85
2021/08/16 13:06:19;;;;;;;1.35;0.85;;;;;;;18.27;73.52;99990.81;4839141;29;20021;-84
2021/08/16 13:08:45;;;;;;;1.77;1.00;;;;;;;18.38;72.92;99967.16;4835056;29;20064;-83
2021/08/16 13:11:11;;;;;;;1.88;1.00;;;;;;;17.91;71.93;99911.78;4839646;29;20011;-84
2021/08/16 13:13:38;;;;;;;1.27;0.88;;;;;;;17.63;73.01;99895.94;4843454;29;20042;-85
2021/08/16 13:16:05;;;;;;;1.73;1.00;;;;;;;17.97;72.94;99972.50;4844399;29;20018;-86
2021/08/16 13:18:31;;;;;;;3.33;1.00;;;;;;;17.69;73.34;99913.91;4852664;29;20026;-86
2021/08/16 13:20:57;;;;;;;1.80;1.05;;;;;;;17.87;73.14;99890.84;4841134;29;20026;-84
2021/08/16 13:23:24;;;;;;;2.65;1.17;;;;;;;18.03;73.00;99884.31;4841592;29;20061;-84
2021/08/16 13:25:49;;;;;;;1.70;0.90;;;;;;;18.26;71.54;99916.47;4836698;29;20018;-84
2021/08/16 13:28:15;;;;;;;1.42;0.85;;;;;;;18.18;71.58;99899.84;4839219;29;20052;-86
2021/08/16 13:30:41;;;;;;;2.13;0.93;;;;;;;18.53;71.17;99965.22;4844454;29;20026;-84
2021/08/16 13:33:08;;;;;;;0.98;0.85;;;;;;;17.99;71.30;99919.44;4846651;29;20042;-85
2021/08/16 13:35:33;;;;;;;1.85;0.90;;;;;;;18.21;72.36;99981.84;4841499;29;20067;-84
2021/08/16 13:37:59;;;;;;;1.80;0.90;;;;;;;17.96;72.48;99908.28;4846179;29;20014;-86
2021/08/16 13:40:25;;;;;;;1.60;0.80;;;;;;;18.59;72.10;99984.31;4855061;29;20038;-85
2021/08/16 13:42:50;;;;;;;2.22;0.90;;;;;;;18.61;71.88;99977.50;4848899;29;20038;-85
2021/08/16 13:45:16;;;;;;;2.00;0.80;;;;;;;18.44;71.87;99915.13;4851312;29;20082;-86
2021/08/16 13:47:42;;;;;;;2.60;1.00;;;;;;;18.48;71.67;99915.41;5106463;23;20050;-86
2021/08/16 13:50:08;;;;;;;1.50;0.90;;;;;;;18.35;71.14;99924.13;4850763;29;20034;-84
2021/08/16 13:52:34;;;;;;;1.27;0.65;;;;;;;18.16;71.83;99927.34;4853873;29;20027;-85
2021/08/16 13:54:59;;;;;;;1.85;0.90;;;;;;;18.27;70.50;99925.44;4848027;29;20155;-83
2021/08/16 13:57:26;;;;;;;1.23;0.70;;;;;;;18.21;70.65;99904.75;4842877;29;20031;-86
2021/08/16 13:59:52;;;;;;;2.47;1.00;;;;;;;18.17;70.24;99922.72;4841767;29;20038;-83
2021/08/16 14:02:18;;;;;;;1.95;0.80;;;;;;;18.00;70.22;99872.06;4852179;29;20032;-85
2021/08/16 14:04:44;;;;;;;2.10;1.00;;;;;;;18.67;70.99;99983.75;4846485;29;20066;-84
2021/08/16 14:07:10;;;;;;;1.45;0.80;;;;;;;18.45;71.03;99924.94;4844437;29;20029;-84
2021/08/16 14:09:36;;;;;;;1.38;0.77;;;;;;;18.67;71.17;99912.91;4850844;29;20046;-86
2021/08/16 14:12:02;;;;;;;3.50;0.80;;;;;;;19.04;70.26;99988.13;4849336;29;20017;-84
2021/08/16 14:14:28;;;;;;;1.85;0.90;;;;;;;18.71;70.07;99922.19;4847919;29;20031;-83
2021/08/16 14:16:54;;;;;;;2.00;0.90;;;;;;;19.05;71.23;99984.31;4850970;29;20029;-84
2021/08/16 14:19:20;;;;;;;2.55;1.00;;;;;;;18.40;71.09;99902.31;4820268;29;20043;-85
2021/08/16 14:21:46;;;;;;;1.52;0.90;;;;;;;19.02;70.67;99985.69;4863311;29;20033;-84
2021/08/16 14:24:12;;;;;;;2.03;1.02;;;;;;;18.50;71.70;99907.75;4850369;29;20030;-83
2021/08/16 14:26:44;;;;;;;4.78;1.10;;;;;;;18.46;71.17;99928.47;4849614;29;20055;-84
2021/08/16 14:29:12;;;;;;;1.80;0.98;;;;;;;18.44;71.69;99931.47;4850082;29;20018;-84
2021/08/16 14:36:46;;;;;;;1.80;0.93;;;;;;;18.38;71.88;99901.78;4846553;29;20057;-86
2021/08/16 14:39:14;;;;;;;2.65;1.05;;;;;;;18.84;71.32;99983.50;4847556;29;20042;-86
2021/08/16 14:41:40;;;;;;;1.13;0.82;;;;;;;19.12;69.98;100004.75;4839174;29;20023;-84
2021/08/16 14:44:06;;;;;;;2.67;1.13;;;;;;;18.84;69.09;99932.56;4828766;29;20129;-83
2021/08/16 14:46:32;;;;;;;2.10;0.93;;;;;;;18.31;68.51;99889.25;4840763;29;20034;-83
2021/08/16 14:48:57;;;;;;;3.15;0.95;;;;;;;18.89;67.82;100002.59;4855372;29;20102;-83
2021/08/16 14:51:23;;;;;;;1.30;0.80;;;;;;;18.48;67.44;99912.66;4848205;29;20054;-85
2021/08/16 14:53:49;;;;;;;2.60;0.88;;;;;;;19.06;67.35;99997.66;4849453;29;20073;-84
2021/08/16 14:56:15;;;;;;;1.52;1.00;;;;;;;19.01;66.58;100000.41;4863936;29;20110;-84
2021/08/16 14:58:42;;;;;;;1.27;0.85;;;;;;;18.41;66.34;99926.56;4865500;29;20022;-84
2021/08/16 15:01:11;;;;;;;1.45;0.80;;;;;;;17.75;67.12;99880.19;4846813;29;20044;-84
2021/08/16 15:03:37;;;;;;;1.75;0.77;;;;;;;17.74;67.71;99908.47;4877304;29;20070;-83
2021/08/16 15:06:14;;;;;;;1.70;1.05;;;;;;;17.53;67.30;99891.28;4866848;29;20020;-86
2021/08/16 15:08:40;;;;;;;1.75;0.98;;;;;;;17.90;68.42;99940.09;4861929;29;20101;-85
2021/08/16 15:11:07;;;;;;;2.42;1.38;;;;;;;17.66;68.31;99901.66;4863732;29;20013;-85
2021/08/16 15:13:35;;;;;;;1.65;0.90;;;;;;;17.77;67.32;99946.06;4864993;29;20027;-85
2021/08/16 15:16:04;;;;;;;3.33;1.20;;;;;;;17.62;67.79;99944.09;4862595;29;20030;-85
2021/08/16 15:18:30;;;;;;;1.98;1.02;;;;;;;17.98;68.79;100004.91;4846919;29;20077;-84
2021/08/16 15:20:56;;;;;;;2.13;0.95;;;;;;;17.23;68.87;99917.25;4848036;29;20038;-85
2021/08/16 15:23:22;;;;;;;2.05;1.00;;;;;;;17.35;69.60;99915.16;4854590;29;20037;-85
2021/08/16 15:25:48;;;;;;;1.55;1.10;;;;;;;17.67;69.68;99946.00;4864500;29;20014;-85
2021/08/16 15:28:14;;;;;;;1.60;0.90;;;;;;;17.89;69.51;100011.16;4865050;29;20049;-86
2021/08/16 15:30:40;;;;;;;2.13;1.10;;;;;;;17.20;69.53;99920.50;4865466;29;20026;-85
2021/08/16 15:33:06;;;;;;;2.60;1.45;;;;;;;17.86;69.78;100008.97;4866331;29;20070;-85
2021/08/16 15:35:32;;;;;;;2.40;1.02;;;;;;;17.88;70.18;100017.66;4861268;29;20094;-86
2021/08/16 15:37:58;;;;;;;4.15;1.10;;;;;;;17.14;70.57;99902.53;4864968;29;20040;-85
2021/08/16 15:40:24;;;;;;;2.03;1.00;;;;;;;17.47;70.95;99942.09;4860989;29;20027;-85
2021/08/16 15:42:49;;;;;;;5.97;1.10;;;;;;;17.28;70.68;99911.84;4847297;29;20030;-85
2021/08/16 15:45:16;;;;;;;2.50;1.00;;;;;;;17.23;70.57;99919.97;4844926;29;20034;-86
2021/08/16 15:47:43;;;;;;;1.40;1.10;;;;;;;17.50;70.73;99967.97;4846200;29;20105;-86
2021/08/16 15:50:10;;;;;;;1.70;1.10;;;;;;;17.11;70.83;99909.31;4846021;29;20038;-85
2021/08/16 15:52:42;;;;;;;1.88;1.00;;;;;;;17.08;70.91;99914.47;4845836;29;20049;-85
2021/08/16 15:55:08;;;;;;;2.97;0.90;;;;;;;17.54;71.43;99977.22;4845634;29;20033;-86
2021/08/16 15:57:34;;;;;;;2.15;1.00;;;;;;;17.32;71.51;99942.88;4864890;29;20051;-85
2021/08/16 16:00:00;;;;;;;1.38;0.90;;;;;;;17.22;71.21;99914.78;4863601;29;20094;-86
2021/08/16 16:02:27;;;;;;;1.75;0.93;;;;;;;17.07;70.88;99901.97;4862818;29;20101;-85
2021/08/16 16:04:52;;;;;;;1.98;1.17;;;;;;;17.93;71.39;100025.84;4861100;29;20114;-85
2021/08/16 16:07:18;;;;;;;2.38;1.00;;;;;;;17.51;71.13;99956.00;4864095;29;20026;-85
2021/08/16 16:09:44;;;;;;;2.15;1.23;;;;;;;17.21;71.61;99913.97;4861450;29;20022;-85
2021/08/16 16:12:10;;;;;;;2.85;0.90;;;;;;;17.23;72.58;99911.00;4846531;29;20018;-85
2021/08/16 16:14:37;;;;;;;1.95;1.00;;;;;;;17.44;72.96;99920.06;4847622;29;20039;-85
2021/08/16 16:17:06;;;;;;;3.22;1.25;;;;;;;17.28;73.32;99914.56;4848181;29;20030;-85
2021/08/16 16:19:33;;;;;;;2.95;1.00;;;;;;;17.71;73.93;99974.28;4837099;29;20039;-86
2021/08/16 16:21:59;;;;;;;4.07;1.27;;;;;;;17.58;74.02;99953.84;4828401;29;20031;-85
2021/08/16 16:27:00;;;;;;;3.60;1.10;;;;;;;18.00;72.58;100016.34;5129442;23;20054;-86
2021/08/16 16:29:25;;;;;;;2.88;1.20;;;;;;;17.28;73.02;99914.56;4865779;29;20090;-86
2021/08/16 16:31:51;;;;;;;1.88;1.08;;;;;;;17.16;72.43;99924.03;4856288;29;20042;-87
2021/08/16 16:34:17;;;;;;;1.48;0.90;;;;;;;16.94;72.41;99918.72;4848085;29;20043;-86
2021/08/16 16:36:43;;;;;;;2.15;1.10;;;;;;;16.91;72.35;99920.88;4847107;29;20032;-86
2021/08/16 16:39:09;;;;;;;2.00;1.00;;;;;;;16.76;73.08;99915.38;4853846;29;20026;-86
2021/08/16 16:41:34;;;;;;;3.55;1.00;;;;;;;16.82;74.70;99937.94;4846400;29;20062;-86
2021/08/16 16:44:00;;;;;;;2.65;0.90;;;;;;;16.70;74.53;99957.13;4846077;29;20102;-84
2021/08/16 16:46:25;;;;;;;2.20;1.00;;;;;;;16.44;76.26;99937.09;4844310;29;20074;-84
2021/08/16 16:48:51;;;;;;;3.60;1.30;;;;;;;16.54;78.78;99979.81;4843926;29;20034;-81
2021/08/16 16:51:21;;;;;;;3.42;1.70;;;;;;;16.08;80.59;99963.91;4837311;29;20022;-82
2021/08/16 16:53:47;;;;;;;2.75;1.50;;;;;;;15.67;81.63;99927.41;4844128;29;20034;-83
2021/08/16 16:56:13;;;;;;;2.80;1.80;;;;;;;15.92;82.90;100000.91;4839827;29;20479;-84
2021/08/16 16:58:39;;;;;;;2.55;1.40;;;;;;;15.96;83.19;100029.19;4840939;29;20461;-84
2021/08/16 17:01:05;;;;;;;3.47;1.70;;;;;;;15.18;83.92;99916.47;4843640;29;20056;-85
2021/08/16 17:03:31;;;;;;;5.38;2.35;;;;;;;15.56;84.38;99958.13;4845385;29;20030;-85
2021/08/16 17:05:57;;;;;;;9.43;4.38;;;;;;;15.44;84.73;99937.41;4857199;29;20040;-85
2021/08/16 17:08:23;;;;;;;7.22;3.60;;;;;;;15.65;84.85;99960.16;4861737;29;20046;-86
2021/08/16 17:10:48;;;;;;;5.97;3.20;;;;;;;15.81;85.44;99971.22;4851329;29;20334;-84